sensor_id;sensor_type;location;lat;lon;timestamp;P1;durP1;ratioP1;P2;durP2;ratioP2
16928;SDS011;8581;47.334;11.190;2024-01-25T00:02:57;0.50;;;0.30;;
16928;SDS011;8581;47.334;11.190;2024-01-25T00:06:19;0.00;;;0.00;;
16928;SDS011;8581;47.334;11.190;2024-01-25T00:09:40;0.30;;;0.20;;
16928;SDS011;8581;47.334;11.190;2024-01-25T00:13:02;0.50;;;0.50;;
16928;SDS011;8581;47.334;11.190;2024-01-25T00:16:24;0.30;;;0.10;;
16928;SDS011;8581;47.334;11.190;2024-01-25T00:19:45;0.90;;;0.47;;
16928;SDS011;8581;47.334;11.190;2024-01-25T00:23:07;0.13;;;0.10;;
16928;SDS011;8581;47.334;11.190;2024-01-25T00:26:28;0.13;;;0.13;;
16928;SDS011;8581;47.334;11.190;2024-01-25T00:29:50;0.73;;;0.10;;
16928;SDS011;8581;47.334;11.190;2024-01-25T00:33:12;0.20;;;0.13;;
16928;SDS011;8581;47.334;11.190;2024-01-25T00:36:33;0.10;;;0.10;;
16928;SDS011;8581;47.334;11.190;2024-01-25T00:39:56;0.20;;;0.20;;
16928;SDS011;8581;47.334;11.190;2024-01-25T00:43:18;0.30;;;0.30;;
16928;SDS011;8581;47.334;11.190;2024-01-25T00:46:40;0.10;;;0.10;;
16928;SDS011;8581;47.334;11.190;2024-01-25T00:50:03;0.10;;;0.00;;
16928;SDS011;8581;47.334;11.190;2024-01-25T00:53:25;0.93;;;0.53;;
16928;SDS011;8581;47.334;11.190;2024-01-25T00:56:48;0.00;;;0.00;;
16928;SDS011;8581;47.334;11.190;2024-01-25T01:00:10;0.00;;;0.00;;
16928;SDS011;8581;47.334;11.190;2024-01-25T01:03:33;0.23;;;0.10;;
16928;SDS011;8581;47.334;11.190;2024-01-25T01:10:22;0.10;;;0.10;;
16928;SDS011;8581;47.334;11.190;2024-01-25T01:13:44;0.00;;;0.00;;
16928;SDS011;8581;47.334;11.190;2024-01-25T01:17:06;0.30;;;0.17;;
16928;SDS011;8581;47.334;11.190;2024-01-25T01:20:27;0.10;;;0.10;;
16928;SDS011;8581;47.334;11.190;2024-01-25T01:23:49;0.00;;;0.00;;
16928;SDS011;8581;47.334;11.190;2024-01-25T01:27:11;0.00;;;0.00;;
16928;SDS011;8581;47.334;11.190;2024-01-25T01:30:32;0.13;;;0.03;;
16928;SDS011;8581;47.334;11.190;2024-01-25T01:33:54;0.00;;;0.00;;
16928;SDS011;8581;47.334;11.190;2024-01-25T01:37:16;0.10;;;0.03;;
16928;SDS011;8581;47.334;11.190;2024-01-25T01:40:37;0.00;;;0.00;;
16928;SDS011;8581;47.334;11.190;2024-01-25T01:44:05;0.20;;;0.20;;
16928;SDS011;8581;47.334;11.190;2024-01-25T01:47:26;0.03;;;0.03;;
16928;SDS011;8581;47.334;11.190;2024-01-25T01:50:48;0.00;;;0.00;;
16928;SDS011;8581;47.334;11.190;2024-01-25T01:54:10;0.10;;;0.10;;
16928;SDS011;8581;47.334;11.190;2024-01-25T01:57:31;0.10;;;0.10;;
16928;SDS011;8581;47.334;11.190;2024-01-25T02:00:53;0.10;;;0.10;;
16928;SDS011;8581;47.334;11.190;2024-01-25T02:04:15;0.00;;;0.00;;
16928;SDS011;8581;47.334;11.190;2024-01-25T02:07:36;0.10;;;0.10;;
16928;SDS011;8581;47.334;11.190;2024-01-25T02:10:58;0.00;;;0.00;;
16928;SDS011;8581;47.334;11.190;2024-01-25T02:14:19;0.00;;;0.00;;
16928;SDS011;8581;47.334;11.190;2024-01-25T02:17:41;0.13;;;0.10;;
16928;SDS011;8581;47.334;11.190;2024-01-25T02:21:03;0.10;;;0.10;;
16928;SDS011;8581;47.334;11.190;2024-01-25T02:24:25;0.00;;;0.00;;
16928;SDS011;8581;47.334;11.190;2024-01-25T02:27:46;0.00;;;0.00;;
16928;SDS011;8581;47.334;11.190;2024-01-25T02:31:09;0.00;;;0.00;;
16928;SDS011;8581;47.334;11.190;2024-01-25T02:34:31;1.40;;;0.10;;
16928;SDS011;8581;47.334;11.190;2024-01-25T02:37:53;0.10;;;0.10;;
16928;SDS011;8581;47.334;11.190;2024-01-25T02:41:15;0.00;;;0.00;;
16928;SDS011;8581;47.334;11.190;2024-01-25T02:44:36;0.00;;;0.00;;
16928;SDS011;8581;47.334;11.190;2024-01-25T02:47:58;0.10;;;0.07;;
16928;SDS011;8581;47.334;11.190;2024-01-25T02:51:19;0.00;;;0.00;;
16928;SDS011;8581;47.334;11.190;2024-01-25T02:54:41;0.10;;;0.10;;
16928;SDS011;8581;47.334;11.190;2024-01-25T02:58:03;0.00;;;0.00;;
16928;SDS011;8581;47.334;11.190;2024-01-25T03:01:25;0.00;;;0.00;;
16928;SDS011;8581;47.334;11.190;2024-01-25T03:04:46;0.00;;;0.00;;
16928;SDS011;8581;47.334;11.190;2024-01-25T03:08:08;0.10;;;0.10;;
16928;SDS011;8581;47.334;11.190;2024-01-25T03:11:30;0.00;;;0.00;;
16928;SDS011;8581;47.334;11.190;2024-01-25T03:14:51;0.10;;;0.00;;
16928;SDS011;8581;47.334;11.190;2024-01-25T03:18:13;0.00;;;0.00;;
16928;SDS011;8581;47.334;11.190;2024-01-25T03:21:34;0.00;;;0.00;;
16928;SDS011;8581;47.334;11.190;2024-01-25T03:24:56;0.00;;;0.00;;
16928;SDS011;8581;47.334;11.190;2024-01-25T03:28:18;0.00;;;0.00;;
16928;SDS011;8581;47.334;11.190;2024-01-25T03:31:39;0.00;;;0.00;;
16928;SDS011;8581;47.334;11.190;2024-01-25T03:35:01;0.03;;;0.03;;
16928;SDS011;8581;47.334;11.190;2024-01-25T03:38:23;0.00;;;0.00;;
16928;SDS011;8581;47.334;11.190;2024-01-25T03:41:44;0.00;;;0.00;;
16928;SDS011;8581;47.334;11.190;2024-01-25T03:45:06;0.00;;;0.00;;
16928;SDS011;8581;47.334;11.190;2024-01-25T03:48:28;0.20;;;0.20;;
16928;SDS011;8581;47.334;11.190;2024-01-25T03:51:50;0.10;;;0.10;;
16928;SDS011;8581;47.334;11.190;2024-01-25T03:55:11;0.00;;;0.00;;
16928;SDS011;8581;47.334;11.190;2024-01-25T03:58:33;0.10;;;0.10;;
16928;SDS011;8581;47.334;11.190;2024-01-25T04:01:55;0.00;;;0.00;;
16928;SDS011;8581;47.334;11.190;2024-01-25T04:05:17;0.03;;;0.03;;
16928;SDS011;8581;47.334;11.190;2024-01-25T04:08:38;0.20;;;0.17;;
16928;SDS011;8581;47.334;11.190;2024-01-25T04:12:00;0.57;;;0.10;;
16928;SDS011;8581;47.334;11.190;2024-01-25T04:15:22;0.20;;;0.20;;
16928;SDS011;8581;47.334;11.190;2024-01-25T04:18:43;0.00;;;0.00;;
16928;SDS011;8581;47.334;11.190;2024-01-25T04:22:05;0.00;;;0.00;;
16928;SDS011;8581;47.334;11.190;2024-01-25T04:25:26;0.10;;;0.03;;
16928;SDS011;8581;47.334;11.190;2024-01-25T04:28:48;0.00;;;0.00;;
16928;SDS011;8581;47.334;11.190;2024-01-25T04:32:10;0.03;;;0.00;;
16928;SDS011;8581;47.334;11.190;2024-01-25T04:35:31;0.10;;;0.10;;
16928;SDS011;8581;47.334;11.190;2024-01-25T04:38:53;0.00;;;0.00;;
16928;SDS011;8581;47.334;11.190;2024-01-25T04:42:15;0.00;;;0.00;;
16928;SDS011;8581;47.334;11.190;2024-01-25T04:45:36;0.07;;;0.07;;
16928;SDS011;8581;47.334;11.190;2024-01-25T04:48:58;0.10;;;0.10;;
16928;SDS011;8581;47.334;11.190;2024-01-25T04:52:19;0.07;;;0.07;;
16928;SDS011;8581;47.334;11.190;2024-01-25T04:55:41;0.00;;;0.00;;
16928;SDS011;8581;47.334;11.190;2024-01-25T04:59:03;0.10;;;0.10;;
16928;SDS011;8581;47.334;11.190;2024-01-25T05:02:24;0.00;;;0.00;;
16928;SDS011;8581;47.334;11.190;2024-01-25T05:05:46;0.20;;;0.10;;
16928;SDS011;8581;47.334;11.190;2024-01-25T05:09:08;0.07;;;0.03;;
16928;SDS011;8581;47.334;11.190;2024-01-25T05:12:29;0.03;;;0.03;;
16928;SDS011;8581;47.334;11.190;2024-01-25T05:15:51;0.00;;;0.00;;
16928;SDS011;8581;47.334;11.190;2024-01-25T05:19:12;0.00;;;0.00;;
16928;SDS011;8581;47.334;11.190;2024-01-25T05:22:34;0.03;;;0.03;;
16928;SDS011;8581;47.334;11.190;2024-01-25T05:25:56;0.10;;;0.07;;
16928;SDS011;8581;47.334;11.190;2024-01-25T05:29:18;0.10;;;0.10;;
16928;SDS011;8581;47.334;11.190;2024-01-25T05:32:40;0.00;;;0.00;;
16928;SDS011;8581;47.334;11.190;2024-01-25T05:36:01;0.00;;;0.00;;
16928;SDS011;8581;47.334;11.190;2024-01-25T05:39:23;0.00;;;0.00;;
16928;SDS011;8581;47.334;11.190;2024-01-25T05:42:45;1.93;;;0.40;;
16928;SDS011;8581;47.334;11.190;2024-01-25T05:46:06;0.47;;;0.20;;
16928;SDS011;8581;47.334;11.190;2024-01-25T05:49:28;0.10;;;0.10;;
16928;SDS011;8581;47.334;11.190;2024-01-25T05:52:49;0.00;;;0.00;;
16928;SDS011;8581;47.334;11.190;2024-01-25T05:56:11;0.20;;;0.20;;
16928;SDS011;8581;47.334;11.190;2024-01-25T05:59:33;0.03;;;0.03;;
16928;SDS011;8581;47.334;11.190;2024-01-25T06:02:54;0.63;;;0.10;;
16928;SDS011;8581;47.334;11.190;2024-01-25T06:06:16;0.10;;;0.10;;
16928;SDS011;8581;47.334;11.190;2024-01-25T06:09:37;0.10;;;0.10;;
16928;SDS011;8581;47.334;11.190;2024-01-25T06:12:59;0.03;;;0.00;;
16928;SDS011;8581;47.334;11.190;2024-01-25T06:16:21;0.43;;;0.10;;
16928;SDS011;8581;47.334;11.190;2024-01-25T06:19:42;0.10;;;0.10;;
16928;SDS011;8581;47.334;11.190;2024-01-25T06:23:04;0.20;;;0.20;;
16928;SDS011;8581;47.334;11.190;2024-01-25T06:26:25;0.10;;;0.10;;
16928;SDS011;8581;47.334;11.190;2024-01-25T06:29:47;0.00;;;0.00;;
16928;SDS011;8581;47.334;11.190;2024-01-25T06:33:09;0.00;;;0.00;;
16928;SDS011;8581;47.334;11.190;2024-01-25T06:36:30;0.10;;;0.10;;
16928;SDS011;8581;47.334;11.190;2024-01-25T06:39:52;0.10;;;0.03;;
16928;SDS011;8581;47.334;11.190;2024-01-25T06:43:14;0.30;;;0.13;;
16928;SDS011;8581;47.334;11.190;2024-01-25T06:46:35;0.20;;;0.10;;
16928;SDS011;8581;47.334;11.190;2024-01-25T06:49:57;0.10;;;0.10;;
16928;SDS011;8581;47.334;11.190;2024-01-25T06:53:19;0.10;;;0.10;;
16928;SDS011;8581;47.334;11.190;2024-01-25T06:56:40;1.37;;;0.10;;
16928;SDS011;8581;47.334;11.190;2024-01-25T07:00:02;0.00;;;0.00;;
16928;SDS011;8581;47.334;11.190;2024-01-25T07:03:24;0.10;;;0.10;;
16928;SDS011;8581;47.334;11.190;2024-01-25T07:06:46;0.10;;;0.10;;
16928;SDS011;8581;47.334;11.190;2024-01-25T07:10:08;0.10;;;0.10;;
16928;SDS011;8581;47.334;11.190;2024-01-25T07:13:30;0.10;;;0.10;;
16928;SDS011;8581;47.334;11.190;2024-01-25T07:16:51;0.10;;;0.10;;
16928;SDS011;8581;47.334;11.190;2024-01-25T07:20:13;0.20;;;0.20;;
16928;SDS011;8581;47.334;11.190;2024-01-25T07:23:34;0.20;;;0.20;;
16928;SDS011;8581;47.334;11.190;2024-01-25T07:26:56;0.13;;;0.13;;
16928;SDS011;8581;47.334;11.190;2024-01-25T07:30:18;0.73;;;0.60;;
16928;SDS011;8581;47.334;11.190;2024-01-25T07:33:39;0.63;;;0.30;;
16928;SDS011;8581;47.334;11.190;2024-01-25T07:37:01;0.20;;;0.20;;
16928;SDS011;8581;47.334;11.190;2024-01-25T07:40:22;0.20;;;0.20;;
16928;SDS011;8581;47.334;11.190;2024-01-25T07:43:44;0.30;;;0.30;;
16928;SDS011;8581;47.334;11.190;2024-01-25T07:47:06;0.53;;;0.53;;
16928;SDS011;8581;47.334;11.190;2024-01-25T07:50:27;2.17;;;1.90;;
16928;SDS011;8581;47.334;11.190;2024-01-25T07:53:49;0.67;;;0.67;;
16928;SDS011;8581;47.334;11.190;2024-01-25T07:57:10;0.40;;;0.40;;
16928;SDS011;8581;47.334;11.190;2024-01-25T08:00:32;0.60;;;0.47;;
16928;SDS011;8581;47.334;11.190;2024-01-25T08:03:54;0.30;;;0.30;;
16928;SDS011;8581;47.334;11.190;2024-01-25T08:07:20;0.30;;;0.30;;
16928;SDS011;8581;47.334;11.190;2024-01-25T08:10:42;0.10;;;0.10;;
16928;SDS011;8581;47.334;11.190;2024-01-25T08:14:03;1.23;;;0.80;;
16928;SDS011;8581;47.334;11.190;2024-01-25T08:17:25;0.60;;;0.60;;
16928;SDS011;8581;47.334;11.190;2024-01-25T08:20:47;0.10;;;0.10;;
16928;SDS011;8581;47.334;11.190;2024-01-25T08:24:08;0.50;;;0.50;;
16928;SDS011;8581;47.334;11.190;2024-01-25T08:27:30;0.70;;;0.70;;
16928;SDS011;8581;47.334;11.190;2024-01-25T08:30:51;0.10;;;0.10;;
16928;SDS011;8581;47.334;11.190;2024-01-25T08:34:13;0.20;;;0.20;;
16928;SDS011;8581;47.334;11.190;2024-01-25T08:37:35;0.10;;;0.10;;
16928;SDS011;8581;47.334;11.190;2024-01-25T08:40:56;0.40;;;0.20;;
16928;SDS011;8581;47.334;11.190;2024-01-25T08:44:18;0.20;;;0.20;;
16928;SDS011;8581;47.334;11.190;2024-01-25T08:47:40;0.10;;;0.10;;
16928;SDS011;8581;47.334;11.190;2024-01-25T08:51:01;1.40;;;0.80;;
16928;SDS011;8581;47.334;11.190;2024-01-25T08:54:23;1.03;;;0.93;;
16928;SDS011;8581;47.334;11.190;2024-01-25T08:57:45;1.00;;;1.00;;
16928;SDS011;8581;47.334;11.190;2024-01-25T09:01:06;1.30;;;1.20;;
16928;SDS011;8581;47.334;11.190;2024-01-25T09:04:28;0.40;;;0.40;;
16928;SDS011;8581;47.334;11.190;2024-01-25T09:07:49;0.57;;;0.50;;
16928;SDS011;8581;47.334;11.190;2024-01-25T09:11:11;0.40;;;0.40;;
16928;SDS011;8581;47.334;11.190;2024-01-25T09:14:33;0.40;;;0.40;;
16928;SDS011;8581;47.334;11.190;2024-01-25T09:17:54;0.90;;;0.90;;
16928;SDS011;8581;47.334;11.190;2024-01-25T09:21:16;0.50;;;0.50;;
16928;SDS011;8581;47.334;11.190;2024-01-25T09:24:37;0.80;;;0.80;;
16928;SDS011;8581;47.334;11.190;2024-01-25T09:28:00;0.43;;;0.43;;
16928;SDS011;8581;47.334;11.190;2024-01-25T09:31:21;0.40;;;0.40;;
16928;SDS011;8581;47.334;11.190;2024-01-25T09:34:42;0.30;;;0.30;;
16928;SDS011;8581;47.334;11.190;2024-01-25T09:38:04;0.30;;;0.30;;
16928;SDS011;8581;47.334;11.190;2024-01-25T09:41:26;0.20;;;0.20;;
16928;SDS011;8581;47.334;11.190;2024-01-25T09:44:47;0.50;;;0.30;;
16928;SDS011;8581;47.334;11.190;2024-01-25T09:48:09;0.67;;;0.67;;
16928;SDS011;8581;47.334;11.190;2024-01-25T09:51:32;0.90;;;0.60;;
16928;SDS011;8581;47.334;11.190;2024-01-25T09:54:52;0.53;;;0.40;;
16928;SDS011;8581;47.334;11.190;2024-01-25T09:58:14;0.57;;;0.43;;
16928;SDS011;8581;47.334;11.190;2024-01-25T10:01:35;0.83;;;0.63;;
16928;SDS011;8581;47.334;11.190;2024-01-25T10:04:57;1.77;;;0.47;;
16928;SDS011;8581;47.334;11.190;2024-01-25T10:08:19;0.40;;;0.20;;
16928;SDS011;8581;47.334;11.190;2024-01-25T10:11:40;0.33;;;0.33;;
16928;SDS011;8581;47.334;11.190;2024-01-25T10:15:03;0.40;;;0.40;;
16928;SDS011;8581;47.334;11.190;2024-01-25T10:18:25;2.53;;;0.60;;
16928;SDS011;8581;47.334;11.190;2024-01-25T10:21:47;0.57;;;0.57;;
16928;SDS011;8581;47.334;11.190;2024-01-25T10:25:13;0.57;;;0.57;;
16928;SDS011;8581;47.334;11.190;2024-01-25T10:28:34;0.87;;;0.40;;
16928;SDS011;8581;47.334;11.190;2024-01-25T10:31:55;0.20;;;0.20;;
16928;SDS011;8581;47.334;11.190;2024-01-25T10:35:17;0.97;;;0.27;;
16928;SDS011;8581;47.334;11.190;2024-01-25T10:38:39;0.40;;;0.20;;
16928;SDS011;8581;47.334;11.190;2024-01-25T10:42:01;0.10;;;0.10;;
16928;SDS011;8581;47.334;11.190;2024-01-25T10:45:22;0.27;;;0.27;;
16928;SDS011;8581;47.334;11.190;2024-01-25T10:48:44;0.40;;;0.40;;
16928;SDS011;8581;47.334;11.190;2024-01-25T10:52:05;2.97;;;0.87;;
16928;SDS011;8581;47.334;11.190;2024-01-25T10:55:27;0.10;;;0.10;;
16928;SDS011;8581;47.334;11.190;2024-01-25T10:58:49;0.47;;;0.20;;
16928;SDS011;8581;47.334;11.190;2024-01-25T11:02:10;0.87;;;0.27;;
16928;SDS011;8581;47.334;11.190;2024-01-25T11:05:32;0.17;;;0.17;;
16928;SDS011;8581;47.334;11.190;2024-01-25T11:09:15;0.83;;;0.30;;
16928;SDS011;8581;47.334;11.190;2024-01-25T11:12:32;0.10;;;0.10;;
16928;SDS011;8581;47.334;11.190;2024-01-25T11:15:54;0.10;;;0.10;;
16928;SDS011;8581;47.334;11.190;2024-01-25T11:19:17;0.10;;;0.10;;
16928;SDS011;8581;47.334;11.190;2024-01-25T11:22:38;0.20;;;0.10;;
16928;SDS011;8581;47.334;11.190;2024-01-25T11:26:00;0.53;;;0.30;;
16928;SDS011;8581;47.334;11.190;2024-01-25T11:29:22;0.50;;;0.50;;
16928;SDS011;8581;47.334;11.190;2024-01-25T11:32:43;0.20;;;0.20;;
16928;SDS011;8581;47.334;11.190;2024-01-25T11:36:05;0.10;;;0.10;;
16928;SDS011;8581;47.334;11.190;2024-01-25T11:39:27;1.17;;;0.70;;
16928;SDS011;8581;47.334;11.190;2024-01-25T11:42:49;0.57;;;0.57;;
16928;SDS011;8581;47.334;11.190;2024-01-25T11:46:11;0.27;;;0.27;;
16928;SDS011;8581;47.334;11.190;2024-01-25T11:49:32;0.33;;;0.20;;
16928;SDS011;8581;47.334;11.190;2024-01-25T11:52:54;0.20;;;0.20;;
16928;SDS011;8581;47.334;11.190;2024-01-25T11:56:19;0.33;;;0.20;;
16928;SDS011;8581;47.334;11.190;2024-01-25T11:59:40;0.13;;;0.13;;
16928;SDS011;8581;47.334;11.190;2024-01-25T12:03:02;0.50;;;0.50;;
16928;SDS011;8581;47.334;11.190;2024-01-25T12:06:24;0.43;;;0.40;;
16928;SDS011;8581;47.334;11.190;2024-01-25T12:09:56;0.60;;;0.40;;
16928;SDS011;8581;47.334;11.190;2024-01-25T12:13:07;0.20;;;0.20;;
16928;SDS011;8581;47.334;11.190;2024-01-25T12:16:29;0.40;;;0.40;;
16928;SDS011;8581;47.334;11.190;2024-01-25T12:19:51;0.40;;;0.40;;
16928;SDS011;8581;47.334;11.190;2024-01-25T12:23:12;0.20;;;0.20;;
16928;SDS011;8581;47.334;11.190;2024-01-25T12:26:34;0.23;;;0.20;;
16928;SDS011;8581;47.334;11.190;2024-01-25T12:29:55;0.20;;;0.20;;
16928;SDS011;8581;47.334;11.190;2024-01-25T12:33:17;0.20;;;0.20;;
16928;SDS011;8581;47.334;11.190;2024-01-25T12:36:39;0.40;;;0.40;;
16928;SDS011;8581;47.334;11.190;2024-01-25T12:40:00;0.20;;;0.20;;
16928;SDS011;8581;47.334;11.190;2024-01-25T12:43:22;0.10;;;0.10;;
16928;SDS011;8581;47.334;11.190;2024-01-25T12:46:44;0.10;;;0.10;;
16928;SDS011;8581;47.334;11.190;2024-01-25T12:50:05;0.27;;;0.27;;
16928;SDS011;8581;47.334;11.190;2024-01-25T12:53:28;0.63;;;0.30;;
16928;SDS011;8581;47.334;11.190;2024-01-25T12:56:49;0.27;;;0.27;;
16928;SDS011;8581;47.334;11.190;2024-01-25T13:00:11;0.53;;;0.40;;
16928;SDS011;8581;47.334;11.190;2024-01-25T13:03:34;0.37;;;0.30;;
16928;SDS011;8581;47.334;11.190;2024-01-25T13:06:55;0.20;;;0.20;;
16928;SDS011;8581;47.334;11.190;2024-01-25T13:10:17;0.97;;;0.27;;
16928;SDS011;8581;47.334;11.190;2024-01-25T13:13:39;0.20;;;0.20;;
16928;SDS011;8581;47.334;11.190;2024-01-25T13:17:00;0.40;;;0.20;;
16928;SDS011;8581;47.334;11.190;2024-01-25T13:20:22;0.10;;;0.10;;
16928;SDS011;8581;47.334;11.190;2024-01-25T13:23:43;0.10;;;0.10;;
16928;SDS011;8581;47.334;11.190;2024-01-25T13:27:05;0.20;;;0.20;;
16928;SDS011;8581;47.334;11.190;2024-01-25T13:30:27;0.07;;;0.00;;
16928;SDS011;8581;47.334;11.190;2024-01-25T13:33:48;0.20;;;0.20;;
16928;SDS011;8581;47.334;11.190;2024-01-25T13:37:10;0.30;;;0.30;;
16928;SDS011;8581;47.334;11.190;2024-01-25T13:40:31;0.23;;;0.10;;
16928;SDS011;8581;47.334;11.190;2024-01-25T13:43:53;1.03;;;0.30;;
16928;SDS011;8581;47.334;11.190;2024-01-25T13:47:15;0.87;;;0.17;;
16928;SDS011;8581;47.334;11.190;2024-01-25T13:50:36;0.33;;;0.20;;
16928;SDS011;8581;47.334;11.190;2024-01-25T13:53:58;0.53;;;0.20;;
16928;SDS011;8581;47.334;11.190;2024-01-25T13:57:19;0.20;;;0.20;;
16928;SDS011;8581;47.334;11.190;2024-01-25T14:00:41;1.40;;;0.27;;
16928;SDS011;8581;47.334;11.190;2024-01-25T14:04:03;0.40;;;0.20;;
16928;SDS011;8581;47.334;11.190;2024-01-25T14:07:25;1.53;;;0.30;;
16928;SDS011;8581;47.334;11.190;2024-01-25T14:10:46;0.20;;;0.20;;
16928;SDS011;8581;47.334;11.190;2024-01-25T14:14:08;1.33;;;0.30;;
16928;SDS011;8581;47.334;11.190;2024-01-25T14:17:30;0.27;;;0.20;;
16928;SDS011;8581;47.334;11.190;2024-01-25T14:20:51;2.63;;;0.80;;
16928;SDS011;8581;47.334;11.190;2024-01-25T14:24:13;0.87;;;0.50;;
16928;SDS011;8581;47.334;11.190;2024-01-25T14:27:34;0.30;;;0.23;;
16928;SDS011;8581;47.334;11.190;2024-01-25T14:30:56;0.57;;;0.23;;
16928;SDS011;8581;47.334;11.190;2024-01-25T14:34:18;0.10;;;0.10;;
16928;SDS011;8581;47.334;11.190;2024-01-25T14:37:39;1.33;;;0.50;;
16928;SDS011;8581;47.334;11.190;2024-01-25T14:41:01;0.47;;;0.37;;
16928;SDS011;8581;47.334;11.190;2024-01-25T14:44:23;0.60;;;0.30;;
16928;SDS011;8581;47.334;11.190;2024-01-25T14:47:44;0.27;;;0.27;;
16928;SDS011;8581;47.334;11.190;2024-01-25T14:51:06;0.43;;;0.20;;
16928;SDS011;8581;47.334;11.190;2024-01-25T14:54:27;0.20;;;0.20;;
16928;SDS011;8581;47.334;11.190;2024-01-25T14:57:49;0.40;;;0.30;;
16928;SDS011;8581;47.334;11.190;2024-01-25T15:01:13;0.20;;;0.20;;
16928;SDS011;8581;47.334;11.190;2024-01-25T15:04:35;0.30;;;0.30;;
16928;SDS011;8581;47.334;11.190;2024-01-25T15:07:57;0.73;;;0.20;;
16928;SDS011;8581;47.334;11.190;2024-01-25T15:11:18;0.57;;;0.30;;
16928;SDS011;8581;47.334;11.190;2024-01-25T15:14:40;1.80;;;0.60;;
16928;SDS011;8581;47.334;11.190;2024-01-25T15:18:02;0.67;;;0.60;;
16928;SDS011;8581;47.334;11.190;2024-01-25T15:21:24;1.07;;;0.53;;
16928;SDS011;8581;47.334;11.190;2024-01-25T15:24:46;0.20;;;0.20;;
16928;SDS011;8581;47.334;11.190;2024-01-25T15:28:07;3.83;;;0.67;;
16928;SDS011;8581;47.334;11.190;2024-01-25T15:31:29;0.60;;;0.60;;
16928;SDS011;8581;47.334;11.190;2024-01-25T15:34:51;0.40;;;0.40;;
16928;SDS011;8581;47.334;11.190;2024-01-25T15:38:12;0.40;;;0.40;;
16928;SDS011;8581;47.334;11.190;2024-01-25T15:41:34;0.87;;;0.50;;
16928;SDS011;8581;47.334;11.190;2024-01-25T15:44:55;0.70;;;0.60;;
16928;SDS011;8581;47.334;11.190;2024-01-25T15:48:17;1.73;;;0.90;;
16928;SDS011;8581;47.334;11.190;2024-01-25T15:51:39;1.00;;;0.90;;
16928;SDS011;8581;47.334;11.190;2024-01-25T15:55:00;0.50;;;0.50;;
16928;SDS011;8581;47.334;11.190;2024-01-25T15:58:22;0.70;;;0.70;;
16928;SDS011;8581;47.334;11.190;2024-01-25T16:01:44;5.58;;;4.90;;
16928;SDS011;8581;47.334;11.190;2024-01-25T16:05:05;2.80;;;2.37;;
16928;SDS011;8581;47.334;11.190;2024-01-25T16:08:27;4.13;;;3.03;;
16928;SDS011;8581;47.334;11.190;2024-01-25T16:11:49;2.33;;;2.20;;
16928;SDS011;8581;47.334;11.190;2024-01-25T16:15:10;1.90;;;1.80;;
16928;SDS011;8581;47.334;11.190;2024-01-25T16:18:32;1.30;;;1.20;;
16928;SDS011;8581;47.334;11.190;2024-01-25T16:21:55;1.23;;;1.20;;
16928;SDS011;8581;47.334;11.190;2024-01-25T16:25:15;1.13;;;1.10;;
16928;SDS011;8581;47.334;11.190;2024-01-25T16:28:37;1.67;;;1.57;;
16928;SDS011;8581;47.334;11.190;2024-01-25T16:31:59;1.50;;;1.40;;
16928;SDS011;8581;47.334;11.190;2024-01-25T16:35:20;1.40;;;1.30;;
16928;SDS011;8581;47.334;11.190;2024-01-25T16:38:42;1.13;;;1.00;;
16928;SDS011;8581;47.334;11.190;2024-01-25T16:42:04;1.40;;;1.30;;
16928;SDS011;8581;47.334;11.190;2024-01-25T16:45:26;7.37;;;2.17;;
16928;SDS011;8581;47.334;11.190;2024-01-25T16:48:47;13.60;;;3.10;;
16928;SDS011;8581;47.334;11.190;2024-01-25T16:52:09;2.13;;;2.00;;
16928;SDS011;8581;47.334;11.190;2024-01-25T16:55:30;1.20;;;1.20;;
16928;SDS011;8581;47.334;11.190;2024-01-25T16:58:52;35.57;;;4.50;;
16928;SDS011;8581;47.334;11.190;2024-01-25T17:02:14;28.20;;;4.13;;
16928;SDS011;8581;47.334;11.190;2024-01-25T17:05:35;2.87;;;1.80;;
16928;SDS011;8581;47.334;11.190;2024-01-25T17:08:57;27.23;;;4.50;;
16928;SDS011;8581;47.334;11.190;2024-01-25T17:12:19;36.07;;;4.73;;
16928;SDS011;8581;47.334;11.190;2024-01-25T17:15:40;93.83;;;8.53;;
16928;SDS011;8581;47.334;11.190;2024-01-25T17:19:02;20.97;;;3.10;;
16928;SDS011;8581;47.334;11.190;2024-01-25T17:22:23;20.30;;;2.77;;
16928;SDS011;8581;47.334;11.190;2024-01-25T17:25:45;1.67;;;1.57;;
16928;SDS011;8581;47.334;11.190;2024-01-25T17:29:07;1.70;;;1.60;;
16928;SDS011;8581;47.334;11.190;2024-01-25T17:32:28;1.40;;;1.30;;
16928;SDS011;8581;47.334;11.190;2024-01-25T17:35:50;17.40;;;3.03;;
16928;SDS011;8581;47.334;11.190;2024-01-25T17:39:12;80.80;;;6.80;;
16928;SDS011;8581;47.334;11.190;2024-01-25T17:42:33;2.07;;;1.93;;
16928;SDS011;8581;47.334;11.190;2024-01-25T17:45:55;3.40;;;2.20;;
16928;SDS011;8581;47.334;11.190;2024-01-25T17:49:16;1.70;;;1.60;;
16928;SDS011;8581;47.334;11.190;2024-01-25T17:52:38;1.00;;;1.00;;
16928;SDS011;8581;47.334;11.190;2024-01-25T17:56:00;1.47;;;1.33;;
16928;SDS011;8581;47.334;11.190;2024-01-25T17:59:21;2.23;;;2.03;;
16928;SDS011;8581;47.334;11.190;2024-01-25T18:02:43;2.60;;;2.07;;
16928;SDS011;8581;47.334;11.190;2024-01-25T18:06:05;26.03;;;4.27;;
16928;SDS011;8581;47.334;11.190;2024-01-25T18:09:26;3.20;;;2.90;;
16928;SDS011;8581;47.334;11.190;2024-01-25T18:12:48;2.57;;;2.37;;
16928;SDS011;8581;47.334;11.190;2024-01-25T18:16:10;1.90;;;1.70;;
16928;SDS011;8581;47.334;11.190;2024-01-25T18:19:31;2.57;;;1.93;;
16928;SDS011;8581;47.334;11.190;2024-01-25T18:22:53;2.10;;;1.90;;
16928;SDS011;8581;47.334;11.190;2024-01-25T18:26:14;6.50;;;3.30;;
16928;SDS011;8581;47.334;11.190;2024-01-25T18:29:36;3.07;;;2.10;;
16928;SDS011;8581;47.334;11.190;2024-01-25T18:32:58;1.87;;;1.77;;
16928;SDS011;8581;47.334;11.190;2024-01-25T18:36:20;2.83;;;2.63;;
16928;SDS011;8581;47.334;11.190;2024-01-25T18:39:42;2.03;;;1.90;;
16928;SDS011;8581;47.334;11.190;2024-01-25T18:43:03;2.00;;;1.90;;
16928;SDS011;8581;47.334;11.190;2024-01-25T18:46:25;2.30;;;2.20;;
16928;SDS011;8581;47.334;11.190;2024-01-25T18:49:47;2.80;;;2.60;;
16928;SDS011;8581;47.334;11.190;2024-01-25T18:53:14;2.40;;;2.20;;
16928;SDS011;8581;47.334;11.190;2024-01-25T18:56:36;2.30;;;2.10;;
16928;SDS011;8581;47.334;11.190;2024-01-25T18:59:59;1.40;;;1.30;;
16928;SDS011;8581;47.334;11.190;2024-01-25T19:03:21;1.60;;;1.50;;
16928;SDS011;8581;47.334;11.190;2024-01-25T19:06:43;2.27;;;1.40;;
16928;SDS011;8581;47.334;11.190;2024-01-25T19:10:05;2.17;;;1.87;;
16928;SDS011;8581;47.334;11.190;2024-01-25T19:13:28;2.10;;;2.00;;
16928;SDS011;8581;47.334;11.190;2024-01-25T19:16:49;1.60;;;1.50;;
16928;SDS011;8581;47.334;11.190;2024-01-25T19:20:11;1.70;;;1.60;;
16928;SDS011;8581;47.334;11.190;2024-01-25T19:23:33;2.30;;;2.10;;
16928;SDS011;8581;47.334;11.190;2024-01-25T19:26:54;1.40;;;1.30;;
16928;SDS011;8581;47.334;11.190;2024-01-25T19:30:16;0.50;;;0.50;;
16928;SDS011;8581;47.334;11.190;2024-01-25T19:33:38;1.97;;;0.90;;
16928;SDS011;8581;47.334;11.190;2024-01-25T19:36:59;1.40;;;1.30;;
16928;SDS011;8581;47.334;11.190;2024-01-25T19:40:21;1.07;;;0.97;;
16928;SDS011;8581;47.334;11.190;2024-01-25T19:43:42;1.00;;;1.00;;
16928;SDS011;8581;47.334;11.190;2024-01-25T19:47:04;1.10;;;1.00;;
16928;SDS011;8581;47.334;11.190;2024-01-25T19:50:29;0.80;;;0.80;;
16928;SDS011;8581;47.334;11.190;2024-01-25T19:53:51;1.00;;;1.00;;
16928;SDS011;8581;47.334;11.190;2024-01-25T19:57:13;9.17;;;8.47;;
16928;SDS011;8581;47.334;11.190;2024-01-25T20:00:36;3.13;;;2.93;;
16928;SDS011;8581;47.334;11.190;2024-01-25T20:03:59;1.50;;;1.40;;
16928;SDS011;8581;47.334;11.190;2024-01-25T20:07:22;1.37;;;1.27;;
16928;SDS011;8581;47.334;11.190;2024-01-25T20:10:44;2.90;;;2.70;;
16928;SDS011;8581;47.334;11.190;2024-01-25T20:14:06;3.73;;;3.53;;
16928;SDS011;8581;47.334;11.190;2024-01-25T20:17:27;15.20;;;14.00;;
16928;SDS011;8581;47.334;11.190;2024-01-25T20:20:50;3.30;;;3.10;;